createdAt,value
2023-02-06T00:01:59.883Z,3.38
2023-02-06T00:04:01.876Z,4.03
2023-02-06T00:06:03.849Z,3.00
2023-02-06T00:08:07.281Z,4.03
2023-02-06T00:10:09.842Z,3.70
2023-02-06T00:12:14.117Z,2.97
2023-02-06T00:14:15.911Z,3.63
2023-02-06T00:16:21.228Z,4.50
2023-02-06T00:18:23.153Z,3.47
2023-02-06T00:20:24.977Z,4.10
2023-02-06T00:22:27.174Z,3.50
2023-02-06T00:24:29.246Z,3.35
2023-02-06T00:26:33.930Z,3.40
2023-02-06T00:28:35.744Z,3.85
2023-02-06T00:30:37.683Z,4.22
2023-02-06T00:32:39.533Z,3.67
2023-02-06T00:34:41.365Z,2.85
2023-02-06T00:36:43.265Z,4.18
2023-02-06T00:38:45.679Z,3.78
2023-02-06T00:40:47.884Z,3.42
2023-02-06T00:42:49.626Z,4.28
2023-02-06T00:44:51.356Z,3.92
2023-02-06T00:46:53.236Z,3.28
2023-02-06T00:48:55.002Z,3.47
2023-02-06T00:50:56.796Z,3.15
2023-02-06T00:52:58.520Z,3.20
2023-02-06T00:55:00.318Z,3.50
2023-02-06T00:57:02.084Z,3.38
2023-02-06T00:59:04.087Z,3.00
2023-02-06T01:01:05.967Z,3.92
2023-02-06T01:03:07.875Z,3.45
2023-02-06T01:05:09.826Z,5.03
2023-02-06T01:07:11.647Z,3.67
2023-02-06T01:09:13.762Z,4.05
2023-02-06T01:11:18.742Z,3.47
2023-02-06T01:13:20.556Z,3.03
2023-02-06T01:15:22.321Z,3.70
2023-02-06T01:17:24.409Z,3.40
2023-02-06T01:19:28.236Z,3.70
2023-02-06T01:21:30.374Z,4.07
2023-02-06T01:23:32.187Z,4.13
2023-02-06T01:25:34.373Z,4.05
2023-02-06T01:27:37.817Z,3.80
2023-02-06T01:29:39.603Z,3.53
2023-02-06T01:31:43.814Z,4.28
2023-02-06T01:33:46.663Z,4.32
2023-02-06T01:35:55.508Z,3.65
2023-02-06T01:37:57.489Z,3.70
2023-02-06T01:39:59.243Z,3.42
2023-02-06T01:42:01.037Z,4.20
2023-02-06T01:44:13.873Z,4.40
2023-02-06T01:46:15.785Z,4.25
2023-02-06T01:48:22.205Z,3.33
2023-02-06T01:50:24.188Z,3.40
2023-02-06T01:52:30.485Z,4.25
2023-02-06T01:54:35.192Z,4.50
2023-02-06T01:56:43.675Z,3.22
2023-02-06T01:58:51.831Z,3.97
2023-02-06T02:00:57.920Z,4.68
2023-02-06T02:03:01.304Z,3.17
2023-02-06T02:05:05.812Z,3.70
2023-02-06T02:07:15.566Z,4.10
2023-02-06T02:09:18.802Z,3.45
2023-02-06T02:11:25.530Z,3.35
2023-02-06T02:13:27.580Z,3.08
2023-02-06T02:15:40.097Z,3.97
2023-02-06T02:17:48.891Z,3.40
2023-02-06T02:19:55.168Z,4.05
2023-02-06T02:22:01.460Z,3.55
2023-02-06T02:24:09.494Z,2.63
2023-02-06T02:26:30.033Z,3.38
2023-02-06T02:28:35.452Z,3.05
2023-02-06T02:30:42.257Z,3.00
2023-02-06T02:32:51.010Z,2.85
2023-02-06T02:35:03.147Z,3.45
2023-02-06T02:37:11.144Z,3.78
2023-02-06T02:39:16.862Z,2.40
2023-02-06T02:41:27.486Z,2.85
2023-02-06T02:43:35.451Z,3.10
2023-02-06T02:45:44.036Z,2.63
2023-02-06T02:47:56.206Z,3.03
2023-02-06T02:50:02.873Z,2.58
2023-02-06T02:52:05.343Z,3.72
2023-02-06T02:54:09.799Z,3.00
2023-02-06T02:56:17.893Z,3.92
2023-02-06T02:58:23.678Z,4.93
2023-02-06T03:00:26.661Z,4.97
2023-02-06T03:02:33.869Z,4.10
2023-02-06T03:04:42.654Z,3.22
2023-02-06T03:06:58.847Z,3.35
2023-02-06T03:09:09.218Z,3.38
2023-02-06T03:11:16.875Z,4.20
2023-02-06T03:13:24.619Z,3.95
2023-02-06T03:15:27.143Z,3.50
2023-02-06T03:17:34.698Z,3.67
2023-02-06T03:19:44.447Z,4.47
2023-02-06T03:21:48.415Z,4.40
2023-02-06T03:23:54.735Z,4.72
2023-02-06T03:26:00.886Z,4.90
2023-02-06T03:28:07.675Z,5.38
2023-02-06T03:30:14.083Z,4.95
2023-02-06T03:32:24.354Z,6.50
2023-02-06T03:34:32.209Z,6.95
2023-02-06T03:36:34.375Z,7.38
2023-02-06T03:38:36.211Z,7.63
2023-02-06T03:40:40.983Z,7.97
2023-02-06T03:42:48.736Z,10.20
2023-02-06T03:44:57.575Z,7.88
2023-02-06T03:47:00.939Z,8.18
2023-02-06T03:49:07.434Z,7.68
2023-02-06T03:51:18.143Z,8.25
2023-02-06T03:53:22.461Z,7.90
2023-02-06T03:55:25.760Z,7.57
2023-02-06T03:57:30.010Z,7.45
2023-02-06T03:59:33.229Z,7.80
2023-02-06T04:01:40.307Z,9.05
2023-02-06T04:03:42.165Z,8.68
2023-02-06T04:05:44.014Z,8.60
2023-02-06T04:07:46.059Z,7.55
2023-02-06T04:09:48.170Z,7.45
2023-02-06T04:11:50.562Z,7.80
2023-02-06T04:13:54.351Z,7.25
2023-02-06T04:15:56.567Z,7.45
2023-02-06T04:18:01.117Z,8.65
2023-02-06T04:20:05.391Z,7.80
2023-02-06T04:22:08.676Z,8.20
2023-02-06T04:24:12.666Z,8.05
2023-02-06T04:26:14.515Z,7.38
2023-02-06T04:28:16.367Z,6.85
2023-02-06T04:30:18.570Z,6.57
2023-02-06T04:32:21.084Z,6.45
2023-02-06T04:34:23.021Z,6.88
2023-02-06T04:36:24.774Z,6.18
2023-02-06T04:38:26.877Z,5.43
2023-02-06T04:40:31.645Z,4.90
2023-02-06T04:42:33.411Z,5.05
2023-02-06T04:44:35.350Z,6.53
2023-02-06T04:46:37.172Z,5.03
2023-02-06T04:48:39.381Z,5.47
2023-02-06T04:50:41.209Z,5.78
2023-02-06T04:52:45.295Z,4.72
2023-02-06T04:54:47.322Z,5.05
2023-02-06T04:56:49.266Z,4.95
2023-02-06T04:58:51.549Z,4.35
2023-02-06T05:00:53.328Z,4.75
2023-02-06T05:02:55.100Z,4.20
2023-02-06T05:04:56.920Z,5.70
2023-02-06T05:06:58.708Z,4.22
2023-02-06T05:09:00.780Z,5.00
2023-02-06T05:11:04.101Z,5.13
2023-02-06T05:13:06.360Z,4.72
2023-02-06T05:15:09.147Z,5.00
2023-02-06T05:17:10.969Z,4.75
2023-02-06T05:19:12.875Z,4.75
2023-02-06T05:21:15.415Z,5.55
2023-02-06T05:23:19.379Z,4.43
2023-02-06T05:25:21.202Z,4.20
2023-02-06T05:27:23.063Z,3.60
2023-02-06T05:29:26.097Z,4.25
2023-02-06T05:31:27.983Z,4.50
2023-02-06T05:33:30.655Z,4.15
2023-02-06T05:35:32.483Z,3.78
2023-02-06T05:37:34.250Z,3.70
2023-02-06T05:39:36.140Z,4.47
2023-02-06T05:41:37.945Z,5.25
2023-02-06T05:43:39.793Z,4.18
2023-02-06T05:45:43.961Z,3.60
2023-02-06T05:47:45.766Z,3.75
2023-02-06T05:49:48.409Z,3.80
2023-02-06T05:51:50.238Z,4.25
2023-02-06T05:53:54.288Z,4.55
2023-02-06T05:55:56.979Z,3.80
2023-02-06T05:57:58.968Z,4.10
2023-02-06T06:00:00.806Z,4.38
2023-02-06T06:02:03.149Z,4.57
2023-02-06T06:04:05.149Z,3.28
2023-02-06T06:06:10.040Z,3.05
2023-02-06T06:08:16.266Z,2.95
2023-02-06T06:10:18.431Z,3.55
2023-02-06T06:12:20.281Z,4.03
2023-02-06T06:14:22.157Z,2.78
2023-02-06T06:16:23.946Z,3.20
2023-02-06T06:18:26.881Z,3.25
2023-02-06T06:20:29.945Z,3.60
2023-02-06T06:22:31.820Z,3.97
2023-02-06T06:24:34.017Z,3.60
2023-02-06T06:26:36.417Z,3.78
2023-02-06T06:28:39.144Z,2.97
2023-02-06T06:30:41.641Z,2.90
2023-02-06T06:32:43.492Z,3.75
2023-02-06T06:34:45.296Z,3.38
2023-02-06T06:36:47.301Z,3.60
2023-02-06T06:38:49.170Z,3.72
2023-02-06T06:40:51.993Z,3.28
2023-02-06T06:42:57.091Z,3.22
2023-02-06T06:44:59.025Z,3.65
2023-02-06T06:47:00.835Z,3.05
2023-02-06T06:49:02.691Z,3.45
2023-02-06T06:51:06.370Z,3.08
2023-02-06T06:53:08.231Z,3.83
2023-02-06T06:55:11.006Z,4.03
2023-02-06T06:57:13.295Z,2.88
2023-02-06T06:59:15.394Z,4.03
2023-02-06T07:01:19.320Z,4.05
2023-02-06T07:03:23.913Z,3.20
2023-02-06T07:05:26.048Z,2.65
2023-02-06T07:07:27.865Z,3.67
2023-02-06T07:09:30.135Z,3.58
2023-02-06T07:11:32.086Z,2.90
2023-02-06T07:13:36.453Z,4.30
2023-02-06T07:15:38.490Z,3.88
2023-02-06T07:17:40.512Z,3.70
2023-02-06T07:19:42.390Z,3.80
2023-02-06T07:21:44.425Z,4.28
2023-02-06T07:23:46.554Z,4.18
2023-02-06T07:25:51.141Z,4.10
2023-02-06T07:27:52.936Z,4.82
2023-02-06T07:29:54.802Z,4.35
2023-02-06T07:31:57.138Z,4.03
2023-02-06T07:34:00.002Z,4.88
2023-02-06T07:36:04.035Z,4.63
2023-02-06T07:38:06.173Z,5.40
2023-02-06T07:40:09.291Z,6.70
2023-02-06T07:42:12.436Z,6.85
2023-02-06T07:44:14.741Z,6.20
2023-02-06T07:46:16.800Z,6.68
2023-02-06T07:48:18.846Z,7.85
2023-02-06T07:50:21.206Z,7.43
2023-02-06T07:52:23.196Z,9.07
2023-02-06T07:54:25.006Z,7.82
2023-02-06T07:56:27.157Z,7.00
2023-02-06T07:58:29.051Z,8.88
2023-02-06T08:00:31.004Z,8.05
2023-02-06T08:02:33.061Z,9.13
2023-02-06T08:04:37.309Z,7.68
2023-02-06T08:06:43.160Z,7.00
2023-02-06T08:08:45.691Z,7.60
2023-02-06T08:10:48.192Z,8.73
2023-02-06T08:12:50.150Z,7.45
2023-02-06T08:14:52.086Z,9.05
2023-02-06T08:16:54.389Z,8.25
2023-02-06T08:18:56.442Z,7.88
2023-02-06T08:21:04.101Z,7.70
2023-02-06T08:23:08.115Z,7.68
2023-02-06T08:25:10.115Z,7.35
2023-02-06T08:27:12.364Z,6.93
2023-02-06T08:29:14.609Z,6.72
2023-02-06T08:31:21.769Z,6.47
2023-02-06T08:33:24.730Z,7.57
2023-02-06T08:35:26.830Z,7.28
2023-02-06T08:37:29.068Z,8.00
2023-02-06T08:39:31.288Z,7.88
2023-02-06T08:41:37.417Z,8.68
2023-02-06T08:43:39.561Z,8.32
2023-02-06T08:45:44.646Z,8.95
2023-02-06T08:47:46.730Z,9.40
2023-02-06T08:49:51.210Z,8.88
2023-02-06T08:51:54.218Z,10.50
2023-02-06T08:53:59.105Z,10.15
2023-02-06T08:56:03.801Z,9.57
2023-02-06T08:58:06.261Z,10.05
2023-02-06T09:00:09.273Z,10.23
2023-02-06T09:02:11.819Z,10.02
2023-02-06T09:04:14.953Z,11.45
2023-02-06T09:06:16.995Z,10.88
2023-02-06T09:08:19.103Z,9.35
2023-02-06T09:10:27.364Z,8.70
2023-02-06T09:12:30.094Z,7.95
2023-02-06T09:14:32.525Z,7.30
2023-02-06T09:16:37.781Z,7.88
2023-02-06T09:18:40.701Z,7.40
2023-02-06T09:20:42.725Z,9.35
2023-02-06T09:22:45.027Z,7.30
2023-02-06T09:24:46.914Z,9.18
2023-02-06T09:27:04.009Z,8.02
2023-02-06T09:29:08.411Z,8.25
2023-02-06T09:31:11.402Z,8.98
2023-02-06T09:33:13.507Z,9.63
2023-02-06T09:35:17.891Z,7.90
2023-02-06T09:37:19.754Z,8.13
2023-02-06T09:39:24.404Z,8.55
2023-02-06T09:41:28.278Z,7.60
2023-02-06T09:43:32.339Z,7.68
2023-02-06T09:45:36.909Z,8.30
2023-02-06T09:47:47.375Z,6.80
2023-02-06T09:49:53.684Z,7.55
2023-02-06T09:52:05.182Z,7.05
2023-02-06T09:54:09.179Z,6.35
2023-02-06T09:56:15.639Z,6.13
2023-02-06T09:58:23.833Z,5.97
2023-02-06T10:00:29.098Z,5.82
2023-02-06T10:02:46.489Z,6.10
2023-02-06T10:04:58.203Z,6.50
2023-02-06T10:07:14.051Z,6.22
2023-02-06T10:09:19.194Z,6.15
2023-02-06T10:11:27.483Z,6.85
2023-02-06T10:13:36.174Z,6.60
2023-02-06T10:15:46.583Z,6.35
2023-02-06T10:17:55.419Z,7.88
2023-02-06T10:20:03.859Z,6.43
2023-02-06T10:22:13.821Z,6.40
2023-02-06T10:24:19.233Z,5.40
2023-02-06T10:26:23.054Z,4.05
2023-02-06T10:28:28.582Z,4.75
2023-02-06T10:30:51.453Z,5.57
2023-02-06T10:33:01.788Z,5.88
2023-02-06T10:35:14.690Z,5.47
2023-02-06T10:37:27.741Z,5.88
2023-02-06T10:39:33.104Z,5.80
2023-02-06T10:41:39.553Z,5.93
2023-02-06T10:43:48.160Z,5.82
2023-02-06T10:46:00.064Z,5.03
2023-02-06T10:48:11.102Z,5.00
2023-02-06T10:50:19.496Z,4.72
2023-02-06T10:52:25.149Z,5.00
2023-02-06T10:54:31.521Z,5.78
2023-02-06T10:56:40.408Z,5.97
2023-02-06T10:58:52.331Z,4.63
2023-02-06T11:00:56.365Z,5.38
2023-02-06T11:03:07.514Z,5.03
2023-02-06T11:05:16.321Z,5.95
2023-02-06T11:07:25.247Z,5.47
2023-02-06T11:09:27.667Z,4.90
2023-02-06T11:11:33.611Z,4.45
2023-02-06T11:13:38.669Z,4.63
2023-02-06T11:15:47.149Z,4.45
2023-02-06T11:17:51.730Z,5.25
2023-02-06T11:19:56.760Z,5.22
2023-02-06T11:22:02.362Z,4.65
2023-02-06T11:24:10.442Z,4.53
2023-02-06T11:26:17.020Z,5.18
2023-02-06T11:28:21.246Z,4.10
2023-02-06T11:30:25.163Z,4.15
2023-02-06T11:32:35.990Z,5.15
2023-02-06T11:36:43.268Z,4.65
2023-02-06T11:38:56.441Z,4.40
2023-02-06T11:41:04.547Z,4.75
2023-02-06T11:43:18.221Z,4.28
2023-02-06T11:45:26.458Z,4.07
2023-02-06T11:47:37.401Z,3.70
2023-02-06T11:49:39.840Z,4.90
2023-02-06T11:51:46.182Z,4.57
2023-02-06T11:53:54.761Z,4.45
2023-02-06T11:56:00.305Z,4.35
2023-02-06T11:58:07.923Z,4.57
2023-02-06T12:00:15.975Z,4.68
2023-02-06T12:02:25.467Z,3.65
2023-02-06T12:04:35.153Z,3.75
2023-02-06T12:06:40.487Z,4.85
2023-02-06T12:08:49.001Z,4.60
2023-02-06T12:10:58.587Z,4.05
2023-02-06T12:13:08.516Z,4.85
2023-02-06T12:15:39.951Z,4.35
2023-02-06T12:17:44.103Z,3.78
2023-02-06T12:20:00.807Z,4.05
2023-02-06T12:22:12.526Z,4.22
2023-02-06T12:24:20.732Z,3.30
2023-02-06T12:26:27.165Z,3.33
2023-02-06T12:28:35.347Z,3.92
2023-02-06T12:30:43.664Z,3.95
2023-02-06T12:32:51.168Z,2.75
2023-02-06T12:35:00.933Z,3.17
2023-02-06T12:37:15.965Z,3.47
2023-02-06T12:39:22.084Z,4.05
2023-02-06T12:41:28.536Z,3.67
2023-02-06T12:43:34.604Z,4.30
2023-02-06T12:45:42.770Z,3.28
2023-02-06T12:47:53.552Z,2.97
2023-02-06T12:52:14.458Z,2.92
2023-02-06T12:54:23.279Z,3.00
2023-02-06T12:56:28.354Z,3.78
2023-02-06T12:58:36.686Z,3.40
2023-02-06T13:00:49.274Z,3.40
2023-02-06T13:02:57.468Z,4.68
2023-02-06T13:05:04.013Z,4.22
2023-02-06T13:07:08.681Z,4.22
2023-02-06T13:09:22.995Z,3.20
2023-02-06T13:11:30.098Z,3.35
2023-02-06T13:13:36.862Z,3.08
2023-02-06T13:15:41.548Z,3.25
2023-02-06T13:17:44.958Z,2.78
2023-02-06T13:19:47.636Z,3.45
2023-02-06T13:21:53.625Z,3.17
2023-02-06T13:24:02.001Z,3.22
2023-02-06T13:26:06.631Z,2.95
2023-02-06T13:28:14.818Z,3.08
2023-02-06T13:30:39.712Z,2.97
2023-02-06T13:32:45.116Z,2.88
2023-02-06T13:34:50.745Z,3.42
2023-02-06T13:36:53.501Z,3.10
2023-02-06T13:38:57.450Z,3.60
2023-02-06T13:41:05.662Z,3.00
2023-02-06T13:43:10.348Z,3.38
2023-02-06T13:45:19.950Z,2.92
2023-02-06T13:47:32.055Z,3.28
2023-02-06T13:49:40.142Z,3.15
2023-02-06T13:51:48.514Z,1.98
2023-02-06T13:53:56.702Z,2.10
2023-02-06T13:56:02.044Z,2.40
2023-02-06T13:58:07.396Z,2.20
2023-02-06T14:00:13.421Z,2.53
2023-02-06T14:02:23.497Z,2.38
2023-02-06T14:04:28.616Z,1.90
2023-02-06T14:06:34.487Z,2.35
2023-02-06T14:08:41.335Z,2.58
2023-02-06T14:10:52.517Z,2.35
2023-02-06T14:13:03.846Z,2.30
2023-02-06T14:15:12.720Z,2.15
2023-02-06T14:17:15.544Z,2.45
2023-02-06T14:19:20.170Z,2.70
2023-02-06T14:21:32.163Z,3.10
2023-02-06T14:23:37.661Z,2.30
2023-02-06T14:25:43.960Z,1.95
2023-02-06T14:27:50.388Z,1.80
2023-02-06T14:30:03.320Z,1.30
2023-02-06T14:32:17.449Z,2.40
2023-02-06T14:34:23.195Z,2.22
2023-02-06T14:36:37.476Z,2.20
2023-02-06T14:38:48.540Z,2.13
2023-02-06T14:40:54.060Z,1.73
2023-02-06T14:42:58.698Z,1.95
2023-02-06T14:45:05.021Z,1.73
2023-02-06T14:47:13.137Z,1.65
2023-02-06T14:49:20.751Z,1.20
2023-02-06T14:51:27.381Z,1.77
2023-02-06T14:53:35.266Z,1.73
2023-02-06T14:55:40.462Z,1.30
2023-02-06T14:57:45.538Z,1.75
2023-02-06T14:59:53.592Z,2.45
2023-02-06T15:01:57.358Z,1.77
2023-02-06T15:04:05.397Z,1.98
2023-02-06T15:06:11.127Z,1.95
2023-02-06T15:08:17.849Z,1.83
2023-02-06T15:10:30.445Z,1.95
2023-02-06T15:12:32.701Z,1.80
2023-02-06T15:14:35.518Z,1.38
2023-02-06T15:16:43.650Z,2.40
2023-02-06T15:18:45.763Z,1.80
2023-02-06T15:20:58.430Z,1.65
2023-02-06T15:23:17.652Z,1.35
2023-02-06T15:25:24.458Z,1.25
2023-02-06T15:27:32.333Z,1.83
2023-02-06T15:29:34.323Z,2.40
2023-02-06T15:31:36.655Z,1.92
2023-02-06T15:33:41.222Z,1.95
2023-02-06T15:35:50.180Z,2.45
2023-02-06T15:37:53.730Z,2.25
2023-02-06T15:40:00.176Z,2.55
2023-02-06T15:42:02.232Z,1.40
2023-02-06T15:44:12.582Z,2.13
2023-02-06T15:46:15.632Z,2.00
2023-02-06T15:48:23.725Z,1.77
2023-02-06T15:50:28.027Z,1.13
2023-02-06T15:52:35.681Z,2.10
2023-02-06T15:54:40.378Z,1.30
2023-02-06T15:56:44.095Z,1.30
2023-02-06T15:58:48.243Z,1.45
2023-02-06T16:00:54.430Z,1.95
2023-02-06T16:03:03.428Z,2.30
2023-02-06T16:05:07.412Z,2.13
2023-02-06T16:07:15.649Z,1.45
2023-02-06T16:09:21.936Z,2.08
2023-02-06T16:11:34.312Z,2.03
2023-02-06T16:13:36.784Z,1.75
2023-02-06T16:15:40.675Z,2.17
2023-02-06T16:17:42.841Z,1.85
2023-02-06T16:19:48.609Z,1.40
2023-02-06T16:22:06.449Z,1.60
2023-02-06T16:24:16.537Z,1.77
2023-02-06T16:26:21.359Z,1.83
2023-02-06T16:28:27.260Z,1.90
2023-02-06T16:30:34.787Z,1.45
2023-02-06T16:32:37.138Z,1.73
2023-02-06T16:34:41.781Z,1.48
2023-02-06T16:36:44.177Z,2.35
2023-02-06T16:38:54.111Z,2.22
2023-02-06T16:41:04.001Z,1.80
2023-02-06T16:43:11.218Z,1.70
2023-02-06T16:45:16.755Z,2.58
2023-02-06T16:47:23.221Z,2.35
2023-02-06T16:49:25.120Z,1.88
2023-02-06T16:51:30.605Z,2.20
2023-02-06T16:53:32.715Z,1.73
2023-02-06T16:55:34.708Z,2.63
2023-02-06T16:57:42.185Z,2.33
2023-02-06T16:59:46.478Z,2.60
2023-02-06T17:01:48.797Z,2.60
2023-02-06T17:03:52.670Z,2.58
2023-02-06T17:05:54.778Z,2.00
2023-02-06T17:07:57.258Z,3.15
2023-02-06T17:09:59.778Z,3.22
2023-02-06T17:12:03.836Z,2.42
2023-02-06T17:14:06.332Z,2.35
2023-02-06T17:16:17.216Z,4.00
2023-02-06T17:18:21.954Z,3.80
2023-02-06T17:20:30.997Z,3.30
2023-02-06T17:22:35.283Z,3.55
2023-02-06T17:24:37.486Z,2.83
2023-02-06T17:26:39.744Z,5.45
2023-02-06T17:28:41.742Z,3.88
2023-02-06T17:30:45.090Z,3.75
2023-02-06T17:32:47.244Z,4.18
2023-02-06T17:34:50.919Z,4.63
2023-02-06T17:36:54.823Z,3.65
2023-02-06T17:38:59.025Z,4.20
2023-02-06T17:41:01.063Z,3.45
2023-02-06T17:43:04.750Z,4.40
2023-02-06T17:45:07.595Z,3.67
2023-02-06T17:47:09.874Z,5.53
2023-02-06T17:49:12.837Z,5.70
2023-02-06T17:51:15.481Z,6.10
2023-02-06T17:53:18.436Z,6.78
2023-02-06T17:55:23.167Z,11.52
2023-02-06T17:57:25.446Z,9.48
2023-02-06T17:59:27.883Z,8.65
2023-02-06T18:01:30.631Z,7.38
2023-02-06T18:03:34.606Z,5.93
2023-02-06T18:05:38.017Z,4.07
2023-02-06T18:07:40.804Z,3.90
2023-02-06T18:09:47.741Z,3.55
2023-02-06T18:11:49.722Z,3.20
2023-02-06T18:13:51.816Z,3.25
2023-02-06T18:15:56.359Z,3.80
2023-02-06T18:17:59.705Z,3.47
2023-02-06T18:20:01.783Z,3.53
2023-02-06T18:22:03.886Z,3.15
2023-02-06T18:24:07.265Z,3.38
2023-02-06T18:26:10.195Z,4.07
2023-02-06T18:28:15.394Z,4.18
2023-02-06T18:30:17.459Z,4.18
2023-02-06T18:32:20.106Z,4.53
2023-02-06T18:34:22.165Z,3.97
2023-02-06T18:36:24.791Z,4.30
2023-02-06T18:38:26.702Z,3.63
2023-02-06T18:40:28.621Z,4.68
2023-02-06T18:42:34.036Z,4.63
2023-02-06T18:44:41.779Z,4.65
2023-02-06T18:46:43.880Z,5.35
2023-02-06T18:48:45.904Z,4.53
2023-02-06T18:50:47.796Z,5.32
2023-02-06T18:52:50.379Z,4.75
2023-02-06T18:54:52.436Z,4.53
2023-02-06T18:56:54.840Z,5.03
2023-02-06T18:58:57.160Z,4.90
2023-02-06T19:00:59.310Z,4.93
2023-02-06T19:03:02.512Z,5.30
2023-02-06T19:05:05.120Z,6.43
2023-02-06T19:07:09.244Z,7.20
2023-02-06T19:09:13.192Z,6.43
2023-02-06T19:11:15.619Z,6.50
2023-02-06T19:13:17.534Z,5.22
2023-02-06T19:15:20.072Z,5.95
2023-02-06T19:17:22.921Z,5.63
2023-02-06T19:19:24.910Z,6.07
2023-02-06T19:21:28.282Z,5.82
2023-02-06T19:23:30.241Z,6.00
2023-02-06T19:25:32.271Z,6.00
2023-02-06T19:27:34.157Z,5.97
2023-02-06T19:29:36.786Z,5.30
2023-02-06T19:31:40.672Z,6.20
2023-02-06T19:33:42.641Z,6.43
2023-02-06T19:35:44.641Z,6.30
2023-02-06T19:37:46.674Z,6.82
2023-02-06T19:39:48.594Z,6.43
2023-02-06T19:41:50.476Z,5.75
2023-02-06T19:43:54.102Z,6.05
2023-02-06T19:45:56.326Z,6.47
2023-02-06T19:47:58.284Z,6.53
2023-02-06T19:50:00.180Z,7.20
2023-02-06T19:52:02.564Z,6.18
2023-02-06T19:54:05.285Z,6.93
2023-02-06T19:56:07.810Z,6.93
2023-02-06T19:58:09.940Z,5.85
2023-02-06T20:00:15.643Z,6.13
2023-02-06T20:02:17.556Z,5.78
2023-02-06T20:04:22.909Z,6.00
2023-02-06T20:06:25.639Z,5.72
2023-02-06T20:08:28.078Z,6.60
2023-02-06T20:10:30.446Z,6.53
2023-02-06T20:12:32.398Z,7.45
2023-02-06T20:14:34.221Z,7.97
2023-02-06T20:16:39.374Z,7.32
2023-02-06T20:18:41.307Z,7.40
2023-02-06T20:20:43.203Z,7.63
2023-02-06T20:22:45.516Z,6.93
2023-02-06T20:24:47.322Z,6.45
2023-02-06T20:26:55.350Z,7.53
2023-02-06T20:29:00.743Z,8.55
2023-02-06T20:31:09.556Z,7.70
2023-02-06T20:33:12.444Z,7.80
2023-02-06T20:35:14.299Z,7.35
2023-02-06T20:37:17.725Z,7.20
2023-02-06T20:39:20.290Z,6.57
2023-02-06T20:41:24.434Z,7.35
2023-02-06T20:43:26.528Z,7.43
2023-02-06T20:45:28.541Z,7.93
2023-02-06T20:47:31.029Z,7.75
2023-02-06T20:49:32.878Z,7.85
2023-02-06T20:51:35.310Z,8.40
2023-02-06T20:53:37.187Z,7.68
2023-02-06T20:55:44.377Z,8.45
2023-02-06T20:57:46.277Z,8.15
2023-02-06T20:59:48.131Z,8.23
2023-02-06T21:01:50.356Z,8.20
2023-02-06T21:03:55.803Z,8.32
2023-02-06T21:05:59.320Z,8.85
2023-02-06T21:08:01.338Z,7.53
2023-02-06T21:10:04.399Z,9.55
2023-02-06T21:12:06.451Z,8.60
2023-02-06T21:14:09.329Z,8.38
2023-02-06T21:16:13.629Z,8.20
2023-02-06T21:18:18.499Z,8.63
2023-02-06T21:20:20.496Z,8.43
2023-02-06T21:22:22.342Z,8.73
2023-02-06T21:24:24.517Z,8.52
2023-02-06T21:26:27.785Z,9.38
2023-02-06T21:28:30.411Z,8.02
2023-02-06T21:30:32.793Z,7.70
2023-02-06T21:32:34.604Z,8.43
2023-02-06T21:34:36.520Z,8.13
2023-02-06T21:36:39.687Z,8.20
2023-02-06T21:38:42.305Z,8.65
2023-02-06T21:40:45.296Z,7.38
2023-02-06T21:42:47.130Z,6.85
2023-02-06T21:44:49.189Z,5.90
2023-02-06T21:46:51.344Z,5.60
2023-02-06T21:48:54.157Z,5.95
2023-02-06T21:50:56.955Z,4.97
2023-02-06T21:52:59.177Z,6.40
2023-02-06T21:55:01.110Z,5.63
2023-02-06T21:57:02.935Z,5.65
2023-02-06T21:59:06.524Z,5.00
2023-02-06T22:01:14.353Z,5.35
2023-02-06T22:03:16.257Z,4.45
2023-02-06T22:05:18.386Z,5.53
2023-02-06T22:07:20.296Z,5.00
2023-02-06T22:09:25.152Z,5.25
2023-02-06T22:11:28.789Z,5.90
2023-02-06T22:13:33.271Z,5.70
2023-02-06T22:15:35.746Z,4.90
2023-02-06T22:17:37.845Z,5.22
2023-02-06T22:19:40.161Z,4.93
2023-02-06T22:21:42.050Z,5.40
2023-02-06T22:23:45.312Z,6.10
2023-02-06T22:25:48.083Z,5.07
2023-02-06T22:27:50.011Z,5.30
2023-02-06T22:29:54.826Z,7.03
2023-02-06T22:31:56.664Z,5.10
2023-02-06T22:34:00.643Z,5.53
2023-02-06T22:36:05.585Z,5.68
2023-02-06T22:38:07.458Z,6.60
2023-02-06T22:40:12.556Z,5.80
2023-02-06T22:42:14.395Z,6.25
2023-02-06T22:44:18.272Z,6.53
2023-02-06T22:46:28.185Z,7.00
2023-02-06T22:48:30.190Z,5.80
2023-02-06T22:50:32.305Z,6.38
2023-02-06T22:52:37.279Z,6.75
2023-02-06T22:54:39.479Z,5.95
2023-02-06T22:56:43.785Z,6.22
2023-02-06T22:58:46.956Z,6.13
2023-02-06T23:00:49.360Z,6.18
2023-02-06T23:02:52.102Z,6.07
2023-02-06T23:04:54.539Z,5.20
2023-02-06T23:06:57.341Z,5.57
2023-02-06T23:09:00.671Z,6.60
2023-02-06T23:11:03.714Z,5.65
2023-02-06T23:13:05.734Z,6.80
2023-02-06T23:15:10.500Z,6.45
2023-02-06T23:17:12.903Z,5.68
2023-02-06T23:19:16.246Z,6.03
2023-02-06T23:21:20.968Z,5.63
2023-02-06T23:23:23.882Z,6.25
2023-02-06T23:25:25.994Z,6.30
2023-02-06T23:27:29.495Z,5.75
2023-02-06T23:29:31.627Z,6.07
2023-02-06T23:31:34.279Z,5.78
2023-02-06T23:33:37.386Z,5.05
2023-02-06T23:35:40.489Z,6.07
2023-02-06T23:37:42.981Z,5.38
2023-02-06T23:39:45.206Z,5.32
2023-02-06T23:41:47.140Z,5.40
2023-02-06T23:43:55.058Z,5.50
2023-02-06T23:45:57.056Z,4.70
2023-02-06T23:47:59.380Z,5.25
2023-02-06T23:50:01.360Z,5.00
2023-02-06T23:52:03.562Z,5.38
2023-02-06T23:54:07.620Z,5.80
2023-02-06T23:56:13.899Z,6.80
2023-02-06T23:58:18.506Z,5.35
